Time;durP1;ratioP1;P1;durP2;ratioP2;P2;SDS_P1;SDS_P2;PMS_P1;PMS_P2;Temp;Humidity;BMP_temperature;BMP_pressure;BME280_temperature;BME280_humidity;BME280_pressure;Samples;Min_cycle;Max_cycle;Signal;HPM_P1;HPM_P2
2022/10/14 00:01:21;;;;;;;48.60;30.80;;;11.40;99.90;;;;;;6229090;23;20182;-87
2022/10/14 00:03:51;;;;;;;42.42;29.85;;;11.30;99.90;;;;;;6227751;23;20222;-86
2022/10/14 00:06:23;;;;;;;41.50;29.65;;;11.20;99.90;;;;;;6227944;23;20229;-86
2022/10/14 00:08:53;;;;;;;43.75;31.17;;;11.00;99.90;;;;;;6202927;23;20236;-88
2022/10/14 00:11:29;;;;;;;51.58;32.38;;;10.90;99.90;;;;;;6228722;23;20169;-87
2022/10/14 00:14:00;;;;;;;47.75;32.67;;;10.80;99.90;;;;;;6178294;23;20179;-88
2022/10/14 00:16:34;;;;;;;50.17;33.08;;;10.70;99.90;;;;;;6206987;23;20193;-86
2022/10/14 00:19:02;;;;;;;43.85;29.85;;;10.60;99.90;;;;;;6216966;23;20250;-84
2022/10/14 00:21:30;;;;;;;47.13;32.70;;;10.40;99.90;;;;;;6242795;22;20210;-86
2022/10/14 00:23:59;;;;;;;52.70;30.88;;;10.40;99.90;;;;;;6209417;23;20170;-86
2022/10/14 00:26:29;;;;;;;48.90;30.85;;;10.50;99.90;;;;;;6230712;23;20187;-85
2022/10/14 00:29:10;;;;;;;48.85;32.67;;;10.60;99.90;;;;;;6206563;23;20214;-86
2022/10/14 00:31:41;;;;;;;47.30;32.53;;;10.60;99.90;;;;;;6204272;23;20164;-86
2022/10/14 00:34:14;;;;;;;46.83;33.13;;;10.60;99.90;;;;;;6228984;23;20175;-86
2022/10/14 00:36:42;;;;;;;44.10;29.88;;;10.70;99.90;;;;;;6228577;23;20501;-87
2022/10/14 00:39:11;;;;;;;51.90;33.33;;;10.70;99.90;;;;;;6226914;23;20179;-85
2022/10/14 00:41:38;;;;;;;55.10;32.38;;;10.70;99.90;;;;;;6225163;23;20182;-86
2022/10/14 00:44:17;;;;;;;45.47;33.22;;;10.60;99.90;;;;;;6227907;23;20198;-86
2022/10/14 00:46:47;;;;;;;54.25;32.10;;;10.70;99.90;;;;;;6231349;23;20190;-86
2022/10/14 00:49:33;;;;;;;46.05;29.77;;;10.80;99.90;;;;;;6227415;23;20209;-86
2022/10/14 00:52:05;;;;;;;44.63;29.20;;;10.90;99.90;;;;;;6220047;23;20186;-87
2022/10/14 00:54:36;;;;;;;43.65;28.42;;;10.80;99.90;;;;;;6177695;23;20183;-87
2022/10/14 00:57:06;;;;;;;51.47;31.73;;;10.80;99.90;;;;;;6227472;23;20209;-88
2022/10/14 01:03:24;;;;;;;46.38;33.55;;;10.60;99.90;;;;;;6242798;23;20154;-87
2022/10/14 01:06:12;;;;;;;50.58;32.95;;;10.50;99.90;;;;;;6241178;23;20237;-86
2022/10/14 01:09:02;;;;;;;45.80;31.23;;;10.50;99.90;;;;;;6237765;22;20265;-87
2022/10/14 01:11:46;;;;;;;54.08;35.03;;;10.40;99.90;;;;;;6230615;23;20203;-86
2022/10/14 01:14:53;;;;;;;50.95;34.35;;;10.30;99.90;;;;;;6226748;23;20178;-88
2022/10/14 01:17:40;;;;;;;50.65;35.80;;;10.00;99.90;;;;;;6225606;23;20394;-87
2022/10/14 01:20:47;;;;;;;47.20;33.22;;;10.00;99.90;;;;;;6227479;23;20206;-86
2022/10/14 01:23:46;;;;;;;44.53;31.90;;;10.10;99.90;;;;;;6189573;23;20209;-86
2022/10/14 01:26:32;;;;;;;53.90;36.10;;;10.10;99.90;;;;;;6225895;23;20202;-86
2022/10/14 01:29:17;;;;;;;54.28;34.00;;;10.20;99.90;;;;;;6224736;23;20215;-86
2022/10/14 01:31:58;;;;;;;48.53;34.90;;;10.30;99.90;;;;;;6224491;23;20174;-87
2022/10/14 01:34:39;;;;;;;47.13;34.05;;;10.30;99.90;;;;;;6225292;23;20190;-86
2022/10/14 01:37:17;;;;;;;53.25;35.25;;;10.30;99.90;;;;;;6230206;23;20171;-85
2022/10/14 01:39:49;;;;;;;49.30;35.22;;;10.40;99.90;;;;;;6226118;23;20174;-84
2022/10/14 01:42:21;;;;;;;48.63;32.90;;;10.30;99.90;;;;;;6201735;23;20180;-84
2022/10/14 01:44:55;;;;;;;54.78;35.70;;;10.10;99.90;;;;;;6227390;23;20178;-84
2022/10/14 01:47:27;;;;;;;49.25;33.63;;;9.90;99.90;;;;;;6232054;23;20154;-86
2022/10/14 01:50:02;;;;;;;60.60;36.78;;;10.00;99.90;;;;;;6242404;22;20202;-83
2022/10/14 01:52:38;;;;;;;55.47;36.13;;;10.10;99.90;;;;;;6242380;23;20234;-85
2022/10/14 01:55:12;;;;;;;53.95;35.03;;;9.90;99.90;;;;;;6242002;23;20185;-85
2022/10/14 01:57:42;;;;;;;50.03;35.15;;;9.90;99.90;;;;;;6241328;23;20194;-86
2022/10/14 02:00:10;;;;;;;55.33;35.83;;;10.00;99.90;;;;;;6208827;23;20191;-85
2022/10/14 02:02:37;;;;;;;52.92;35.25;;;10.00;99.90;;;;;;6199438;23;20183;-85
2022/10/14 02:05:13;;;;;;;52.33;38.20;;;10.00;99.90;;;;;;6205028;23;20213;-85
2022/10/14 02:07:47;;;;;;;54.22;33.72;;;10.10;99.90;;;;;;6228875;23;20182;-84
2022/10/14 02:10:50;;;;;;;52.58;36.28;;;10.10;99.90;;;;;;6227839;23;20273;-85
2022/10/14 02:13:44;;;;;;;49.63;33.33;;;10.20;99.90;;;;;;6226702;23;20177;-84
2022/10/14 02:16:37;;;;;;;55.03;35.10;;;10.30;99.90;;;;;;6225128;23;20490;-85
2022/10/14 02:19:20;;;;;;;55.25;35.33;;;10.50;99.90;;;;;;6198545;23;20451;-84
2022/10/14 02:21:55;;;;;;;51.50;33.08;;;10.50;99.90;;;;;;6225149;23;20205;-85
2022/10/14 02:24:30;;;;;;;52.50;34.72;;;10.60;99.90;;;;;;6227227;23;20167;-84
2022/10/14 02:27:01;;;;;;;53.28;34.55;;;10.90;99.90;;;;;;6229814;23;20231;-84
2022/10/14 02:29:30;;;;;;;52.70;33.55;;;11.10;99.90;;;;;;6202167;23;20281;-85
2022/10/14 02:31:58;;;;;;;49.47;32.28;;;10.80;99.90;;;;;;6228315;23;20179;-85
2022/10/14 02:34:26;;;;;;;52.30;34.28;;;10.90;99.90;;;;;;6227198;23;20225;-84
2022/10/14 02:36:54;;;;;;;47.60;31.35;;;11.10;99.90;;;;;;6205916;23;20183;-85
2022/10/14 02:39:28;;;;;;;48.60;33.05;;;11.00;99.90;;;;;;6212994;23;20255;-85
2022/10/14 02:41:55;;;;;;;45.90;30.38;;;11.00;99.90;;;;;;6240556;23;20162;-84
2022/10/14 02:44:25;;;;;;;45.97;29.15;;;10.80;99.90;;;;;;6242667;23;20175;-87
2022/10/14 02:46:55;;;;;;;51.22;31.67;;;10.80;99.90;;;;;;6242600;23;20170;-86
2022/10/14 02:49:25;;;;;;;46.42;31.30;;;10.80;99.90;;;;;;6242801;23;20199;-86
2022/10/14 02:51:52;;;;;;;43.95;31.77;;;10.70;99.90;;;;;;6243336;23;20163;-85
2022/10/14 02:54:20;;;;;;;50.83;30.05;;;10.90;99.90;;;;;;6243273;23;20177;-86
2022/10/14 02:56:48;;;;;;;49.92;33.20;;;10.90;99.90;;;;;;6243820;23;20159;-86
2022/10/14 02:59:15;;;;;;;44.70;32.50;;;10.90;99.90;;;;;;6253191;22;20170;-85
2022/10/14 03:01:44;;;;;;;56.47;32.75;;;10.70;99.90;;;;;;6248892;22;20158;-87
2022/10/14 03:04:13;;;;;;;40.38;29.55;;;10.70;99.90;;;;;;6248645;22;20181;-86
2022/10/14 03:06:40;;;;;;;52.92;31.48;;;10.80;99.90;;;;;;6274343;22;20200;-86
2022/10/14 03:09:09;;;;;;;49.88;32.45;;;10.50;99.90;;;;;;6273357;22;20225;-86
2022/10/14 03:11:37;;;;;;;50.78;31.33;;;10.30;99.90;;;;;;6248693;22;20636;-85
2022/10/14 03:14:04;;;;;;;44.92;30.70;;;10.40;99.90;;;;;;6273206;22;20170;-85
2022/10/14 03:16:32;;;;;;;47.30;33.25;;;10.40;99.90;;;;;;6273964;23;20196;-85
2022/10/14 03:18:59;;;;;;;43.92;32.60;;;10.30;99.90;;;;;;6248099;22;20163;-86
2022/10/14 03:21:27;;;;;;;49.20;31.25;;;10.30;99.90;;;;;;6247471;23;20161;-85
2022/10/14 03:23:55;;;;;;;47.08;32.95;;;10.30;99.90;;;;;;6272907;23;20170;-88
2022/10/14 03:26:25;;;;;;;49.35;32.67;;;10.30;99.90;;;;;;6273968;22;20193;-85
2022/10/14 03:28:55;;;;;;;44.28;31.10;;;10.20;99.90;;;;;;6273716;23;20186;-86
2022/10/14 03:31:25;;;;;;;46.03;31.13;;;10.20;99.90;;;;;;6273604;23;20177;-86
2022/10/14 03:33:52;;;;;;;48.75;32.60;;;10.30;99.90;;;;;;6273244;22;20200;-87
2022/10/14 03:36:19;;;;;;;48.63;31.50;;;10.30;99.90;;;;;;6270271;23;20220;-86
2022/10/14 03:38:47;;;;;;;50.65;32.05;;;10.20;99.90;;;;;;6271183;23;20478;-85
2022/10/14 03:41:17;;;;;;;53.58;33.42;;;10.10;99.90;;;;;;6268341;23;20182;-87
2022/10/14 03:43:45;;;;;;;50.35;34.03;;;9.90;99.90;;;;;;6268974;22;20239;-87
2022/10/14 03:46:15;;;;;;;54.05;34.33;;;9.60;99.90;;;;;;6243436;22;20191;-90
2022/10/14 03:48:45;;;;;;;52.13;34.03;;;9.80;99.90;;;;;;6243766;23;20185;-91
2022/10/14 03:51:16;;;;;;;48.25;31.55;;;9.80;99.90;;;;;;6265735;23;20238;-86
2022/10/14 03:53:43;;;;;;;44.28;32.47;;;9.70;99.90;;;;;;6263623;23;20239;-86
2022/10/14 03:56:11;;;;;;;47.67;30.88;;;9.90;99.90;;;;;;6263208;23;20543;-87
2022/10/14 03:58:39;;;;;;;50.45;32.83;;;10.00;99.90;;;;;;6259144;23;20190;-86
2022/10/14 04:01:07;;;;;;;51.10;33.88;;;10.20;99.90;;;;;;6234875;23;20175;-88
2022/10/14 04:03:36;;;;;;;46.92;31.65;;;10.20;99.90;;;;;;6238596;23;20170;-89
2022/10/14 04:06:04;;;;;;;50.25;34.42;;;10.40;99.90;;;;;;6183578;23;20205;-88
2022/10/14 04:08:31;;;;;;;42.28;31.58;;;10.30;99.90;;;;;;6231214;23;20190;-89
2022/10/14 04:10:58;;;;;;;43.42;31.30;;;10.30;99.90;;;;;;6189085;22;20224;-90
2022/10/14 04:13:28;;;;;;;46.53;31.35;;;10.00;99.90;;;;;;6237030;23;20245;-89
2022/10/14 04:16:01;;;;;;;43.58;31.75;;;9.80;99.90;;;;;;6209468;23;20186;-87
2022/10/14 04:18:42;;;;;;;42.72;32.53;;;9.80;99.90;;;;;;6236257;22;20217;-87
2022/10/14 04:21:11;;;;;;;49.63;32.55;;;9.60;99.90;;;;;;6265798;22;20502;-88
2022/10/14 04:23:38;;;;;;;47.97;32.22;;;9.60;99.90;;;;;;6266405;23;20181;-88
2022/10/14 04:26:08;;;;;;;47.67;33.13;;;9.70;99.90;;;;;;6237915;23;20186;-88
2022/10/14 04:28:35;;;;;;;51.15;31.85;;;9.90;99.90;;;;;;6264201;22;20192;-87
2022/10/14 04:31:03;;;;;;;47.85;31.05;;;10.10;99.90;;;;;;6264121;22;20173;-88
2022/10/14 04:33:31;;;;;;;50.13;33.15;;;10.10;99.90;;;;;;6265866;23;20210;-89
2022/10/14 04:36:00;;;;;;;46.95;32.08;;;10.20;99.90;;;;;;6263864;23;20182;-88
2022/10/14 04:38:28;;;;;;;48.00;31.73;;;10.20;99.90;;;;;;6237887;23;20236;-88
2022/10/14 04:40:57;;;;;;;45.15;31.67;;;10.40;99.90;;;;;;6260754;23;20193;-88
2022/10/14 04:43:24;;;;;;;49.60;32.53;;;10.30;99.90;;;;;;6234889;22;20195;-88
2022/10/14 04:45:53;;;;;;;45.83;29.38;;;10.40;99.90;;;;;;6240356;23;20220;-87
2022/10/14 04:48:21;;;;;;;46.60;29.80;;;10.40;99.90;;;;;;6217984;23;20178;-87
2022/10/14 04:50:57;;;;;;;46.17;32.08;;;10.60;99.90;;;;;;6219037;22;20205;-86
2022/10/14 04:53:29;;;;;;;43.88;29.42;;;10.60;99.90;;;;;;6237861;22;20185;-88
2022/10/14 04:55:58;;;;;;;46.53;29.08;;;10.60;99.90;;;;;;6238115;23;20615;-87
2022/10/14 04:58:26;;;;;;;42.50;31.30;;;10.60;99.90;;;;;;6238067;23;20170;-89
2022/10/14 05:01:25;;;;;;;49.35;33.55;;;10.70;99.90;;;;;;6233242;23;20175;-87
2022/10/14 05:04:03;;;;;;;52.38;29.55;;;10.60;99.90;;;;;;6232748;23;20596;-89
2022/10/14 05:06:36;;;;;;;51.33;29.75;;;10.40;99.90;;;;;;6229009;23;20166;-88
2022/10/14 05:09:05;;;;;;;51.00;31.35;;;10.60;99.90;;;;;;6230594;23;20183;-88
2022/10/14 05:11:35;;;;;;;43.42;33.53;;;10.50;99.90;;;;;;6238099;23;20198;-86
2022/10/14 05:14:04;;;;;;;46.45;31.63;;;10.70;99.90;;;;;;6236945;23;20151;-86
2022/10/14 05:16:32;;;;;;;46.60;31.55;;;10.70;99.90;;;;;;6242166;23;20170;-87
2022/10/14 05:18:59;;;;;;;50.70;31.05;;;10.90;99.90;;;;;;6239322;22;20213;-89
2022/10/14 05:21:27;;;;;;;44.85;31.15;;;10.60;99.90;;;;;;6233529;23;20250;-88
2022/10/14 05:23:56;;;;;;;48.10;31.92;;;10.50;99.90;;;;;;6230218;23;20472;-90
2022/10/14 05:26:26;;;;;;;45.08;28.67;;;10.50;99.90;;;;;;6230073;23;20170;-86
2022/10/14 05:28:56;;;;;;;47.65;31.90;;;10.60;99.90;;;;;;6223829;23;20184;-87
2022/10/14 05:31:23;;;;;;;45.25;29.98;;;10.50;99.90;;;;;;6224092;23;20191;-86
2022/10/14 05:33:54;;;;;;;48.35;33.05;;;10.70;99.90;;;;;;6199551;23;20378;-86
2022/10/14 05:36:22;;;;;;;42.45;30.42;;;10.80;99.90;;;;;;6227452;23;20174;-89
2022/10/14 05:38:49;;;;;;;46.33;31.90;;;10.70;99.90;;;;;;6224497;23;20206;-87
2022/10/14 05:41:16;;;;;;;45.03;30.95;;;10.60;99.90;;;;;;6230440;23;20178;-88
2022/10/14 05:43:47;;;;;;;43.90;30.23;;;10.70;99.90;;;;;;6206472;23;20186;-89
2022/10/14 05:46:25;;;;;;;47.25;32.10;;;10.70;99.90;;;;;;6229565;23;20192;-87
2022/10/14 05:48:53;;;;;;;43.90;31.65;;;10.70;99.90;;;;;;6234241;23;20186;-88
2022/10/14 05:54:05;;;;;;;47.25;30.75;;;10.70;99.90;;;;;;6172086;22;20614;-89
2022/10/14 05:59:15;;;;;;;43.05;28.38;;;10.80;99.90;;;;;;6192848;22;21740;-89
2022/10/14 06:01:43;;;;;;;41.90;31.33;;;10.90;99.90;;;;;;6265228;23;20187;-88
2022/10/14 06:04:20;;;;;;;39.85;28.67;;;11.10;99.90;;;;;;6219251;22;20203;-89
2022/10/14 06:06:50;;;;;;;49.30;30.30;;;11.30;99.90;;;;;;6232480;23;20193;-88
2022/10/14 06:09:19;;;;;;;38.60;28.00;;;11.10;99.90;;;;;;6230393;23;20459;-89
2022/10/14 06:11:50;;;;;;;32.53;26.35;;;11.20;99.90;;;;;;6238261;23;20217;-90
2022/10/14 06:16:59;;;;;;;40.28;30.00;;;11.30;99.90;;;;;;6271283;22;20206;-87
2022/10/14 06:22:09;;;;;;;43.25;28.38;;;11.10;99.90;;;;;;6264943;22;20228;-88
2022/10/14 06:27:14;;;;;;;42.55;28.45;;;11.20;99.90;;;;;;6206930;22;20239;-90
2022/10/14 06:29:42;;;;;;;41.00;28.50;;;11.30;99.90;;;;;;6216195;22;20198;-88
2022/10/14 06:32:10;;;;;;;45.38;28.67;;;11.20;99.90;;;;;;6266676;22;20506;-88
2022/10/14 06:42:48;;;;;;;47.92;29.05;;;11.20;99.90;;;;;;6249034;22;20194;-89
2022/10/14 06:50:36;;;;;;;37.88;26.95;;;11.40;99.90;;;;;;6201754;22;20205;-90
2022/10/14 06:53:20;;;;;;;39.00;27.77;;;11.40;99.90;;;;;;6199653;22;20208;-90
2022/10/14 06:56:01;;;;;;;37.65;26.83;;;11.30;99.90;;;;;;6239663;22;20178;-89
2022/10/14 06:58:34;;;;;;;44.38;26.15;;;11.30;99.90;;;;;;6241113;22;20234;-89
2022/10/14 07:01:06;;;;;;;42.95;27.98;;;11.10;99.90;;;;;;6238132;23;20225;-88
2022/10/14 07:03:37;;;;;;;43.35;26.20;;;11.20;99.90;;;;;;6238608;23;20228;-90
2022/10/14 07:06:22;;;;;;;37.70;27.45;;;11.00;99.90;;;;;;6243751;22;20206;-89
2022/10/14 07:08:57;;;;;;;38.20;27.63;;;11.20;99.90;;;;;;6268469;22;20461;-91
2022/10/14 07:11:30;;;;;;;39.45;25.60;;;11.20;99.90;;;;;;6239609;23;20217;-89
2022/10/14 07:13:59;;;;;;;41.45;27.70;;;11.10;99.90;;;;;;6258776;23;20199;-91
2022/10/14 07:16:29;;;;;;;38.67;25.15;;;11.30;99.90;;;;;;6259463;23;20182;-89
2022/10/14 07:19:00;;;;;;;42.97;28.48;;;11.50;99.90;;;;;;6260996;23;20198;-86
2022/10/14 07:21:36;;;;;;;37.55;24.25;;;11.40;99.90;;;;;;6263224;22;20167;-89
2022/10/14 07:24:05;;;;;;;44.92;28.30;;;11.70;99.90;;;;;;6256929;23;20213;-88
2022/10/14 07:26:41;;;;;;;32.53;22.23;;;12.10;99.90;;;;;;6287078;22;20182;-89
2022/10/14 07:29:14;;;;;;;37.35;22.75;;;13.50;99.90;;;;;;6265656;22;20166;-87
2022/10/14 07:31:47;;;;;;;35.80;23.23;;;15.30;99.90;;;;;;6264923;22;20163;-89
2022/10/14 07:39:35;;;;;;;38.63;21.67;;;19.50;99.90;;;;;;6244794;23;20377;-86
2022/10/14 07:42:07;;;;;;;28.63;19.57;;;20.80;99.90;;;;;;6240218;23;20493;-88
2022/10/14 07:44:40;;;;;;;25.93;22.87;;;21.90;99.90;;;;;;6238959;23;20340;-88
2022/10/14 07:47:09;;;;;;;27.73;22.17;;;22.80;99.90;;;;;;6238302;23;20346;-88
2022/10/14 07:49:41;;;;;;;27.80;20.87;;;23.20;99.90;;;;;;6213026;23;20378;-90
2022/10/14 08:14:07;;;;;;;26.43;22.03;;;24.60;99.90;;;;;;6238606;22;20480;-87
2022/10/14 08:16:35;;;;;;;29.30;23.00;;;24.50;99.90;;;;;;6261237;23;20417;-89
2022/10/14 08:27:12;;;;;;;24.43;19.80;;;25.10;99.90;;;;;;6231647;22;20252;-89
2022/10/14 08:32:15;;;;;;;24.90;19.85;;;26.60;99.90;;;;;;6193187;22;20761;-89
2022/10/14 08:37:19;;;;;;;28.87;21.03;;;27.40;98.20;;;;;;6192261;22;20444;-89
2022/10/14 08:45:16;;;;;;;23.33;19.00;;;24.80;99.90;;;;;;6170787;22;20375;-90
2022/10/14 08:50:35;;;;;;;25.33;18.80;;;23.10;99.90;;;;;;6162167;22;20769;-89
2022/10/14 09:01:10;;;;;;;21.67;17.20;;;21.60;99.90;;;;;;6234699;22;20439;-91
2022/10/14 09:06:27;;;;;;;27.70;18.87;;;20.70;99.90;;;;;;6230029;23;20466;-90
2022/10/14 09:09:05;;;;;;;24.80;17.90;;;20.30;99.90;;;;;;6192247;22;20412;-89
2022/10/14 09:11:42;;;;;;;28.67;20.73;;;19.70;99.90;;;;;;6258003;23;20766;-88
2022/10/14 09:14:22;;;;;;;27.10;20.30;;;19.20;99.90;;;;;;6229957;23;20392;-87
2022/10/14 09:16:58;;;;;;;26.80;19.13;;;19.00;99.90;;;;;;6251597;23;20474;-87
2022/10/14 09:19:33;;;;;;;26.70;18.57;;;19.20;99.90;;;;;;6228469;23;20485;-86
2022/10/14 09:22:23;;;;;;;28.63;19.30;;;19.10;99.90;;;;;;6203095;23;20408;-88
2022/10/14 09:24:53;;;;;;;21.60;16.90;;;18.90;99.90;;;;;;6230768;23;20412;-88
2022/10/14 09:27:21;;;;;;;21.50;17.10;;;19.00;99.90;;;;;;6253729;23;20417;-86
2022/10/14 09:30:03;;;;;;;23.10;17.37;;;18.90;99.90;;;;;;6252902;23;20431;-87
2022/10/14 09:32:56;;;;;;;23.97;19.10;;;18.70;99.90;;;;;;6255247;23;20374;-87
2022/10/14 09:35:39;;;;;;;27.97;18.70;;;18.20;99.90;;;;;;6253126;23;20414;-87
2022/10/14 09:38:11;;;;;;;24.77;18.53;;;18.30;99.90;;;;;;6249458;23;20382;-87
2022/10/14 09:40:46;;;;;;;24.23;17.30;;;18.60;99.90;;;;;;6209777;23;20448;-86
2022/10/14 09:43:20;;;;;;;23.27;17.67;;;18.30;99.90;;;;;;6256454;23;20428;-84
2022/10/14 09:46:00;;;;;;;28.73;17.90;;;17.90;99.90;;;;;;6257615;23;20378;-86
2022/10/14 09:48:50;;;;;;;23.70;19.30;;;17.80;99.90;;;;;;6231311;23;20389;-86
2022/10/14 09:51:25;;;;;;;22.33;17.60;;;17.90;99.90;;;;;;6258194;23;20511;-86
2022/10/14 09:54:00;;;;;;;23.00;19.43;;;17.90;99.90;;;;;;6256688;23;20404;-85
2022/10/14 09:56:38;;;;;;;24.87;18.60;;;18.20;99.90;;;;;;6232375;23;20381;-87
2022/10/14 09:59:23;;;;;;;27.10;15.70;;;18.10;99.90;;;;;;6258910;23;20361;-85
2022/10/14 10:02:37;;;;;;;26.00;17.50;;;18.10;99.90;;;;;;6230806;23;20447;-87
2022/10/14 10:05:31;;;;;;;22.40;16.60;;;18.20;99.90;;;;;;6224988;23;20473;-85
2022/10/14 10:08:19;;;;;;;24.60;17.67;;;18.10;99.90;;;;;;6257054;23;20397;-87
2022/10/14 10:10:59;;;;;;;25.70;15.77;;;17.90;99.90;;;;;;6231026;23;20458;-84
2022/10/14 10:13:42;;;;;;;18.63;15.13;;;18.10;99.90;;;;;;6230816;23;20482;-88
2022/10/14 10:16:30;;;;;;;25.40;17.00;;;18.20;99.90;;;;;;6255117;23;20349;-90
2022/10/14 10:19:18;;;;;;;31.10;15.20;;;18.30;99.90;;;;;;6257539;23;20450;-87
2022/10/14 10:21:50;;;;;;;21.53;14.97;;;18.30;99.90;;;;;;6257035;23;20386;-85
2022/10/14 10:24:20;;;;;;;18.37;14.00;;;18.30;99.90;;;;;;6231159;23;20371;-86
2022/10/14 10:26:59;;;;;;;24.43;15.57;;;18.30;99.90;;;;;;6256116;23;20384;-86
2022/10/14 10:29:33;;;;;;;18.87;14.90;;;18.50;99.90;;;;;;6255468;23;20400;-87
2022/10/14 10:32:17;;;;;;;19.73;13.30;;;18.80;99.90;;;;;;6258008;23;20825;-89
2022/10/14 10:35:10;;;;;;;17.40;13.17;;;18.70;99.90;;;;;;6254203;23;20374;-87
2022/10/14 10:37:59;;;;;;;14.97;11.47;;;18.70;99.90;;;;;;6255404;23;20453;-85
2022/10/14 10:40:38;;;;;;;23.07;14.47;;;18.80;99.90;;;;;;6233850;23;20387;-89
2022/10/14 10:43:17;;;;;;;24.20;15.03;;;18.80;99.90;;;;;;6230269;23;20358;-86
2022/10/14 10:46:27;;;;;;;17.67;13.63;;;18.80;99.90;;;;;;6260523;22;20446;-86
2022/10/14 10:49:17;;;;;;;18.73;13.70;;;18.70;99.90;;;;;;6273432;22;20380;-89
2022/10/14 10:51:58;;;;;;;21.77;12.87;;;18.50;99.90;;;;;;6265126;23;20386;-84
2022/10/14 10:55:04;;;;;;;16.43;12.67;;;18.50;99.90;;;;;;6232593;23;20402;-85
2022/10/14 10:58:00;;;;;;;31.10;13.90;;;18.70;99.90;;;;;;6205492;23;20974;-85
2022/10/14 11:00:57;;;;;;;24.60;13.60;;;18.80;99.90;;;;;;6232749;23;20486;-85
2022/10/14 11:04:11;;;;;;;19.20;12.07;;;18.80;99.90;;;;;;6231532;23;20505;-84
2022/10/14 11:13:19;;;;;;;15.77;12.23;;;18.80;99.90;;;;;;6258064;23;20371;-85
2022/10/14 11:16:04;;;;;;;20.30;12.47;;;18.80;99.90;;;;;;6257958;23;20488;-86
2022/10/14 11:18:48;;;;;;;21.70;13.63;;;19.00;99.90;;;;;;6232036;23;20820;-86
2022/10/14 11:21:41;;;;;;;13.53;11.17;;;18.90;99.90;;;;;;6257894;23;20422;-86
2022/10/14 11:24:44;;;;;;;19.03;13.77;;;19.00;99.90;;;;;;6259273;23;20425;-85
2022/10/14 11:27:47;;;;;;;14.83;11.40;;;19.10;99.90;;;;;;6241985;23;20363;-86
2022/10/14 11:31:08;;;;;;;16.63;12.83;;;19.20;99.90;;;;;;6243009;23;20464;-88
2022/10/14 11:34:00;;;;;;;15.97;12.30;;;19.20;99.90;;;;;;6265518;23;20422;-87
2022/10/14 11:37:07;;;;;;;16.37;10.70;;;19.20;99.90;;;;;;6273696;22;20377;-88
2022/10/14 11:40:01;;;;;;;17.37;11.17;;;19.20;99.90;;;;;;6247824;23;20444;-88
2022/10/14 11:42:38;;;;;;;17.63;11.97;;;19.20;99.90;;;;;;6266870;23;20400;-88
2022/10/14 11:45:42;;;;;;;18.63;12.53;;;19.20;99.90;;;;;;6241353;23;20370;-88
2022/10/14 11:48:30;;;;;;;20.33;12.33;;;19.30;99.90;;;;;;6238920;23;20367;-87
2022/10/14 11:52:01;;;;;;;15.93;11.17;;;19.10;99.90;;;;;;6235080;23;20409;-88
2022/10/14 11:54:42;;;;;;;16.60;10.83;;;19.20;99.90;;;;;;6118248;23;20452;-87
2022/10/14 11:57:29;;;;;;;19.90;13.00;;;19.40;99.90;;;;;;6119896;23;20438;-89
2022/10/14 12:00:20;;;;;;;16.73;12.20;;;19.40;99.90;;;;;;6220675;23;20365;-87
2022/10/14 12:03:19;;;;;;;19.70;13.67;;;19.40;99.90;;;;;;6234797;23;20764;-87
2022/10/14 12:06:29;;;;;;;19.10;13.13;;;19.30;99.90;;;;;;6261255;23;20377;-88
2022/10/14 12:09:45;;;;;;;14.03;12.10;;;19.10;99.90;;;;;;6263656;23;20370;-88
2022/10/14 12:12:16;;;;;;;17.87;12.43;;;19.10;99.90;;;;;;6198223;23;20461;-89
2022/10/14 12:14:49;;;;;;;13.93;12.17;;;19.30;99.90;;;;;;6225919;23;20417;-89
2022/10/14 12:17:39;;;;;;;14.67;11.23;;;19.40;99.90;;;;;;6257666;23;20397;-89
2022/10/14 12:20:35;;;;;;;16.43;12.70;;;19.40;99.90;;;;;;6231903;23;20486;-88
2022/10/14 12:23:07;;;;;;;18.63;12.40;;;19.40;99.90;;;;;;6184310;23;20397;-90
2022/10/14 12:25:52;;;;;;;14.37;10.20;;;19.70;99.90;;;;;;6209398;23;20431;-88
2022/10/14 12:28:23;;;;;;;16.20;11.10;;;19.80;99.90;;;;;;6256331;23;20375;-88
2022/10/14 12:31:20;;;;;;;17.60;12.33;;;20.20;99.90;;;;;;6236247;23;20471;-90
2022/10/14 12:34:26;;;;;;;16.30;12.63;;;20.30;99.90;;;;;;6258395;23;20356;-89
2022/10/14 12:37:24;;;;;;;17.20;12.00;;;20.10;99.90;;;;;;6259407;23;20424;-89
2022/10/14 12:40:07;;;;;;;18.00;12.80;;;20.00;99.90;;;;;;6259081;23;20382;-89
2022/10/14 12:42:56;;;;;;;15.07;11.30;;;19.90;99.90;;;;;;6234680;23;20439;-88
2022/10/14 12:45:31;;;;;;;14.10;11.00;;;20.30;99.90;;;;;;6262238;23;20393;-92
2022/10/14 12:48:22;;;;;;;17.00;12.20;;;20.70;99.90;;;;;;6237560;23;20775;-90
2022/10/14 12:51:15;;;;;;;13.73;12.13;;;20.90;99.90;;;;;;6235177;23;20373;-90
2022/10/14 12:54:10;;;;;;;16.53;11.87;;;21.10;99.90;;;;;;6239686;23;20821;-91
2022/10/14 12:59:52;;;;;;;12.43;8.30;;;21.10;99.90;;;;;;6261018;22;20511;-91
2022/10/14 13:02:36;;;;;;;11.20;8.00;;;21.10;99.90;;;;;;6256305;23;20397;-87
2022/10/14 13:05:09;;;;;;;8.10;6.80;;;21.30;99.90;;;;;;6262961;22;20462;-89
2022/10/14 13:07:44;;;;;;;11.93;7.70;;;21.20;99.90;;;;;;6265152;22;20397;-89
2022/10/14 13:10:26;;;;;;;11.00;7.53;;;21.20;99.90;;;;;;6263439;23;20423;-88
2022/10/14 13:12:59;;;;;;;11.23;7.00;;;20.90;99.90;;;;;;6259088;23;20871;-88
2022/10/14 13:15:51;;;;;;;15.63;8.50;;;20.50;99.90;;;;;;6258942;22;20780;-89
2022/10/14 13:18:27;;;;;;;9.03;7.47;;;20.00;99.90;;;;;;6231909;23;20418;-89
2022/10/14 13:20:55;;;;;;;13.73;8.53;;;19.70;99.90;;;;;;6258461;22;20401;-90
2022/10/14 13:23:46;;;;;;;10.17;8.20;;;19.40;99.90;;;;;;6260967;23;20419;-90
2022/10/14 13:26:57;;;;;;;9.77;8.33;;;19.20;99.90;;;;;;6259526;23;20670;-88
2022/10/14 13:29:40;;;;;;;10.37;8.53;;;19.00;99.90;;;;;;6265004;23;20429;-89
2022/10/14 13:32:44;;;;;;;10.40;8.30;;;18.90;99.90;;;;;;6258569;23;20407;-89
2022/10/14 13:35:28;;;;;;;7.90;7.00;;;18.70;99.90;;;;;;6258716;23;20817;-87
2022/10/14 13:38:05;;;;;;;14.93;9.37;;;18.50;99.90;;;;;;6256573;23;20454;-88
2022/10/14 13:40:44;;;;;;;12.90;8.60;;;18.50;99.90;;;;;;6259507;22;20413;-88
2022/10/14 13:43:31;;;;;;;15.03;9.60;;;18.50;99.90;;;;;;6225167;22;20454;-88
2022/10/14 13:46:19;;;;;;;11.57;9.43;;;18.60;99.90;;;;;;6263563;23;20729;-88
2022/10/14 13:54:18;;;;;;;14.93;8.60;;;18.40;99.90;;;;;;6226543;22;20599;-91
2022/10/14 13:59:23;;;;;;;13.80;10.90;;;18.20;99.90;;;;;;6220227;22;20398;-91
2022/10/14 14:07:29;;;;;;;8.97;7.40;;;18.40;99.90;;;;;;6224819;22;20436;-88
2022/10/14 14:13:04;;;;;;;13.03;10.50;;;18.40;99.90;;;;;;6207074;22;21763;-88
2022/10/14 14:15:33;;;;;;;13.70;9.87;;;18.30;99.90;;;;;;6234150;23;20404;-91
2022/10/14 14:18:03;;;;;;;13.27;8.67;;;18.10;99.90;;;;;;6261873;23;20466;-89
2022/10/14 14:20:34;;;;;;;9.10;8.20;;;17.90;99.90;;;;;;6257602;22;20427;-90
2022/10/14 14:23:02;;;;;;;9.30;6.67;;;17.60;99.90;;;;;;6260760;23;20387;-85
2022/10/14 14:25:34;;;;;;;10.03;8.27;;;17.70;99.90;;;;;;6270793;23;20427;-87
2022/10/14 14:28:17;;;;;;;8.93;7.20;;;17.70;99.90;;;;;;6268662;22;20402;-88
2022/10/14 14:33:33;;;;;;;7.53;6.10;;;17.40;99.90;;;;;;6228322;22;20734;-91
2022/10/14 14:36:08;;;;;;;7.03;5.50;;;17.30;99.90;;;;;;6263400;22;20412;-88
2022/10/14 14:39:00;;;;;;;6.60;5.90;;;17.50;99.90;;;;;;6288256;22;20389;-87
2022/10/14 14:41:30;;;;;;;5.53;5.03;;;17.80;99.90;;;;;;6215355;22;20447;-88
2022/10/14 14:44:05;;;;;;;7.60;6.33;;;18.10;99.90;;;;;;6246560;23;20404;-90
2022/10/14 14:46:54;;;;;;;5.93;5.37;;;17.90;99.90;;;;;;6267590;23;20473;-88
2022/10/14 14:49:30;;;;;;;12.00;6.07;;;17.90;99.90;;;;;;6263597;23;20371;-90
2022/10/14 14:51:58;;;;;;;13.77;5.17;;;17.70;99.90;;;;;;6247726;22;20466;-89
2022/10/14 14:54:28;;;;;;;5.60;5.00;;;17.50;99.90;;;;;;6258028;23;20383;-89
2022/10/14 14:57:07;;;;;;;4.50;4.10;;;17.40;99.90;;;;;;6262941;23;20392;-88
2022/10/14 14:59:41;;;;;;;6.27;4.50;;;17.50;99.90;;;;;;6237625;22;20392;-86
2022/10/14 15:02:17;;;;;;;10.50;5.07;;;17.30;99.90;;;;;;6269972;22;20423;-88
2022/10/14 15:04:46;;;;;;;5.97;5.37;;;17.30;99.90;;;;;;6269956;22;20433;-88
2022/10/14 15:07:18;;;;;;;6.40;5.33;;;17.10;99.90;;;;;;6262131;23;20377;-90
2022/10/14 15:10:21;;;;;;;6.03;5.40;;;17.20;99.90;;;;;;6265422;22;20443;-90
2022/10/14 15:12:55;;;;;;;10.90;5.50;;;17.10;99.90;;;;;;6262496;23;20396;-91
2022/10/14 15:15:24;;;;;;;7.13;5.43;;;16.90;99.90;;;;;;6265064;22;20424;-89
2022/10/14 15:18:16;;;;;;;9.80;5.60;;;16.90;99.90;;;;;;6262867;22;20375;-88
2022/10/14 15:20:45;;;;;;;11.30;5.80;;;16.90;99.90;;;;;;6266234;23;20383;-89